Iblea — IBFK — position and weather

sailwx.info

Track history (hours):
 
Tides and Currents Weather Stations Pressure Air Temp Water Temp Dewpoint Dewpoint Depression Visibility Wind Speed Wind Dir Waves Ship Positions

Iblea

Last reported at 2017-Dec-20 12:23 UTC. Time now 2018-Jan-22 06:36 UTC.
Position N 35°45' E 014°38'.
Warning: this ship's position is 32 days out of date.

Length 176 m; draft 8.1 m.

Type: Tanker. MMSI: 247087700.

Date/timePositionNaut miles runAvg speedWind from/ knotsBaromVisibWave heightAir tempDewpointWater temp
2017-Dec-20 12:23N 35°45' E 014°38'410.3
2017-Dec-20 11:57N 35°48' E 014°34'1 0.0
2017-Dec-19 08:53N 35°49' E 014°33'2 4.5
2017-Dec-19 08:30N 35°48' E 014°35'0 0.8
2017-Dec-19 07:58N 35°48' E 014°35'4 7.3
2017-Dec-19 07:29N 35°47' E 014°40'12 0.8
2017-Dec-18 16:18N 35°49' E 014°54'4 1.2
2017-Dec-18 12:41N 35°45' E 014°54'0 1.6
2017-Dec-18 12:24N 35°46' E 014°54'1 1.4
2017-Dec-18 12:00N 35°46' E 014°54'1 1.5
2017-Dec-18 11:27N 35°47' E 014°53'2 3.6
2017-Dec-18 10:48N 35°49' E 014°53'2 5.3
2017-Dec-18 10:21N 35°51' E 014°54'2 5.4
2017-Dec-18 09:56N 35°54' E 014°54'3 7.0
2017-Dec-18 09:30N 35°56' E 014°55'7311.7
2017-Dec-18 03:17N 37°04' E 015°30'411.3
2017-Dec-18 02:57N 37°07' E 015°32'6 1.2
2017-Dec-17 22:13N 37°12' E 015°35'1 4.0
2017-Dec-17 21:54N 37°12' E 015°36'6 4.2
2017-Dec-17 20:25N 37°13' E 015°44'2 4.2
2017-Dec-17 19:57N 37°13' E 015°47'2 3.3
2017-Dec-17 19:24N 37°13' E 015°49'1 3.7
2017-Dec-17 19:00N 37°13' E 015°51'1 0.1
2017-Dec-17 08:52N 37°14' E 015°50'105 2.8
2017-Dec-15 19:41N 35°39' E 014°52'1 3.7
2017-Dec-15 19:28N 35°40' E 014°53'2 3.8
2017-Dec-15 18:57N 35°42' E 014°53'2 3.8
2017-Dec-15 18:27N 35°44' E 014°54'2 3.8
2017-Dec-15 17:58N 35°46' E 014°55'2 3.8
2017-Dec-15 17:29N 35°47' E 014°55'3 5.4
2017-Dec-15 16:57N 35°50' E 014°54'2 5.3
2017-Dec-15 16:29N 35°52' E 014°53'1 2.5
2017-Dec-15 15:56N 35°54' E 014°52'0 0.2
2017-Dec-15 15:30N 35°54' E 014°52'0 0.0
2017-Dec-15 15:00N 35°54' E 014°52'0 0.1
2017-Dec-15 14:30N 35°54' E 014°52'0 0.0
2017-Dec-15 14:00N 35°54' E 014°52'0 0.1
2017-Dec-15 13:29N 35°54' E 014°52'0 0.1
2017-Dec-15 13:00N 35°54' E 014°52'0 0.0
2017-Dec-15 12:30N 35°54' E 014°52'0 0.0
2017-Dec-15 12:00N 35°54' E 014°52'0 0.0
2017-Dec-15 11:30N 35°54' E 014°52'0 0.0
2017-Dec-15 11:00N 35°54' E 014°52'0 0.0
2017-Dec-15 10:30N 35°54' E 014°52'0 0.1
2017-Dec-15 09:59N 35°54' E 014°52'0 0.1
2017-Dec-15 09:30N 35°54' E 014°52'0 0.1
2017-Dec-15 08:59N 35°54' E 014°52'0 0.0
2017-Dec-15 08:24N 35°54' E 014°52'0 0.1
2017-Dec-15 08:00N 35°54' E 014°52'0 0.0
2017-Dec-15 07:30N 35°54' E 014°52'0 0.1
2017-Dec-15 07:00N 35°54' E 014°52'0 0.0
2017-Dec-15 06:26N 35°54' E 014°52'0 0.0
2017-Dec-15 06:00N 35°54' E 014°52'0 0.0
2017-Dec-15 00:59N 35°54' E 014°52'0 0.0
2017-Dec-15 00:28N 35°54' E 014°52'0 0.0
2017-Dec-14 18:01N 35°54' E 014°52'0 0.2
2017-Dec-14 17:49N 35°54' E 014°52'0 0.2
2017-Dec-14 17:23N 35°54' E 014°52'2 4.2
2017-Dec-14 17:00N 35°52' E 014°53'  
Track history (hours):
 
Tides and Currents Weather Stations Pressure Air Temp Water Temp Dewpoint Dewpoint Depression Visibility Wind Speed Wind Dir Waves Ship Positions

Iblea

Last reported at 2017-Dec-20 12:23 UTC. Time now 2018-Jan-22 06:36 UTC.
Position N 35°45' E 014°38'.
Warning: this ship's position is 32 days out of date.

Length 176 m; draft 8.1 m.

Type: Tanker. MMSI: 247087700.

Date/timePositionNaut miles runAvg speedWind from/ knotsBaromVisibWave heightAir tempDewpointWater temp
2017-Dec-20 12:23N 35°45' E 014°38'410.3
2017-Dec-20 11:57N 35°48' E 014°34'1 0.0
2017-Dec-19 08:53N 35°49' E 014°33'2 4.5
2017-Dec-19 08:30N 35°48' E 014°35'0 0.8
2017-Dec-19 07:58N 35°48' E 014°35'4 7.3
2017-Dec-19 07:29N 35°47' E 014°40'12 0.8
2017-Dec-18 16:18N 35°49' E 014°54'4 1.2
2017-Dec-18 12:41N 35°45' E 014°54'0 1.6
2017-Dec-18 12:24N 35°46' E 014°54'1 1.4
2017-Dec-18 12:00N 35°46' E 014°54'1 1.5
2017-Dec-18 11:27N 35°47' E 014°53'2 3.6
2017-Dec-18 10:48N 35°49' E 014°53'2 5.3
2017-Dec-18 10:21N 35°51' E 014°54'2 5.4
2017-Dec-18 09:56N 35°54' E 014°54'3 7.0
2017-Dec-18 09:30N 35°56' E 014°55'7311.7
2017-Dec-18 03:17N 37°04' E 015°30'411.3
2017-Dec-18 02:57N 37°07' E 015°32'6 1.2
2017-Dec-17 22:13N 37°12' E 015°35'1 4.0
2017-Dec-17 21:54N 37°12' E 015°36'6 4.2
2017-Dec-17 20:25N 37°13' E 015°44'2 4.2
2017-Dec-17 19:57N 37°13' E 015°47'2 3.3
2017-Dec-17 19:24N 37°13' E 015°49'1 3.7
2017-Dec-17 19:00N 37°13' E 015°51'1 0.1
2017-Dec-17 08:52N 37°14' E 015°50'105 2.8
2017-Dec-15 19:41N 35°39' E 014°52'1 3.7
2017-Dec-15 19:28N 35°40' E 014°53'2 3.8
2017-Dec-15 18:57N 35°42' E 014°53'2 3.8
2017-Dec-15 18:27N 35°44' E 014°54'2 3.8
2017-Dec-15 17:58N 35°46' E 014°55'2 3.8
2017-Dec-15 17:29N 35°47' E 014°55'3 5.4
2017-Dec-15 16:57N 35°50' E 014°54'2 5.3
2017-Dec-15 16:29N 35°52' E 014°53'1 2.5
2017-Dec-15 15:56N 35°54' E 014°52'0 0.2
2017-Dec-15 15:30N 35°54' E 014°52'0 0.0
2017-Dec-15 15:00N 35°54' E 014°52'0 0.1
2017-Dec-15 14:30N 35°54' E 014°52'0 0.0
2017-Dec-15 14:00N 35°54' E 014°52'0 0.1
2017-Dec-15 13:29N 35°54' E 014°52'0 0.1
2017-Dec-15 13:00N 35°54' E 014°52'0 0.0
2017-Dec-15 12:30N 35°54' E 014°52'0 0.0
2017-Dec-15 12:00N 35°54' E 014°52'0 0.0
2017-Dec-15 11:30N 35°54' E 014°52'0 0.0
2017-Dec-15 11:00N 35°54' E 014°52'0 0.0
2017-Dec-15 10:30N 35°54' E 014°52'0 0.1
2017-Dec-15 09:59N 35°54' E 014°52'0 0.1
2017-Dec-15 09:30N 35°54' E 014°52'0 0.1
2017-Dec-15 08:59N 35°54' E 014°52'0 0.0
2017-Dec-15 08:24N 35°54' E 014°52'0 0.1
2017-Dec-15 08:00N 35°54' E 014°52'0 0.0
2017-Dec-15 07:30N 35°54' E 014°52'0 0.1
2017-Dec-15 07:00N 35°54' E 014°52'0 0.0
2017-Dec-15 06:26N 35°54' E 014°52'0 0.0
2017-Dec-15 06:00N 35°54' E 014°52'0 0.0
2017-Dec-15 00:59N 35°54' E 014°52'0 0.0
2017-Dec-15 00:28N 35°54' E 014°52'0 0.0
2017-Dec-14 18:01N 35°54' E 014°52'0 0.2
2017-Dec-14 17:49N 35°54' E 014°52'0 0.2
2017-Dec-14 17:23N 35°54' E 014°52'2 4.2
2017-Dec-14 17:00N 35°52' E 014°53'  

Dump ship's entire track history